Wetterdaten der Wetterstation 41540 Dormagen

Letzte Wetterlage 29.07.2015 02:23
Wetterdiagramm
Tabellarische Darstellung
Datum Temperatur Windchill Feuchte Luftdruck Windrichtung Windstärke Niederschlag
29.07.2015 02:28 12,4 °C 12,4 °C 83 % 1009,6 hPa 315 2.0 0 l/m²
29.07.2015 02:23 12,4 °C 11,0 °C 83 % 1009,6 hPa 225 2.4 0 l/m²
29.07.2015 02:18 12,4 °C 12,4 °C 83 % 1009,5 hPa 135 2.0 0 l/m²
29.07.2015 02:13 12,4 °C 12,4 °C 83 % 1009,6 hPa 225 1.4 0 l/m²
29.07.2015 02:08 12,4 °C 11,0 °C 83 % 1009,6 hPa 270 2.4 0 l/m²
29.07.2015 02:03 12,4 °C 12,4 °C 82 % 1009,5 hPa 23 2.0 0 l/m²
29.07.2015 01:58 12,4 °C 10,4 °C 82 % 1009,7 hPa 270 2.7 0 l/m²
29.07.2015 01:53 12,4 °C 12,4 °C 82 % 1009,8 hPa 225 1.7 0 l/m²
29.07.2015 01:48 12,4 °C 11,0 °C 82 % 1009,5 hPa 2.4 0 l/m²
29.07.2015 01:43 12,5 °C 12,5 °C 82 % 1009,7 hPa 180 1.7 0 l/m²
29.07.2015 01:38 12,6 °C 12,6 °C 82 % 1009,7 hPa 315 1.0 0 l/m²
29.07.2015 01:33 12,6 °C 11,2 °C 81 % 1009,8 hPa 90 2.4 0 l/m²
29.07.2015 01:28 12,6 °C 12,6 °C 81 % 1009,7 hPa 180 2.0 0 l/m²
29.07.2015 01:23 12,6 °C 12,6 °C 81 % 1009,8 hPa 135 2.0 0 l/m²
29.07.2015 01:18 12,6 °C 9,9 °C 81 % 1009,6 hPa 225 3.1 0 l/m²
29.07.2015 01:13 12,6 °C 12,6 °C 81 % 1009,8 hPa 315 2.0 0 l/m²
29.07.2015 01:08 12,7 °C 12,7 °C 80 % 1009,8 hPa 180 2.0 0 l/m²
29.07.2015 01:03 12,8 °C 12,8 °C 80 % 1009,8 hPa 180 1.4 0 l/m²
29.07.2015 00:58 12,9 °C 12,9 °C 79 % 1009,6 hPa 270 1.0 0 l/m²
29.07.2015 00:53 12,9 °C 11,5 °C 79 % 1009,7 hPa 225 2.4 0 l/m²
29.07.2015 00:48 13,0 °C 13,0 °C 78 % 1009,7 hPa 225 1.4 0 l/m²
29.07.2015 00:43 13,1 °C 13,1 °C 77 % 1009,8 hPa 225 1.7 0 l/m²
29.07.2015 00:38 13,2 °C 13,2 °C 77 % 1009,7 hPa 225 1.4 0 l/m²
29.07.2015 00:33 13,2 °C 13,2 °C 77 % 1009,6 hPa 135 1.0 0 l/m²
29.07.2015 00:28 13,2 °C 13,2 °C 77 % 1009,8 hPa 225 2.0 0 l/m²
Neue Wetterwarnung

Neue Niederschlagsmeldung
Neue Meldung
Regen Liveticker
    sehr starker Regen/Gewitter
    starker Regen/Gewitter
    mäßiger bis starker Regen
    mäßiger Regen
    leichter bis mäßiger Regen
    kein Regen